Terminal Aerodrome Forecast
Issued by NWS

Current Version | Previous Version | Graphics & Text | Print | Product List | Glossary On
Versions: 1 2 3 4 5 6 7 8 9 10 11 12 13 14 15 16 17 18 19 20 21
000
FTUS41 KILN 050200 AAA
TAFLUK
TAF AMD
KLUK 050225Z 0502/0524 00000KT P6SM SCT070 BKN150
      TEMPO 0509/0512 3SM BR
     FM051500 23008KT P6SM SCT070=

USA.gov is the U.S. government's official web portal to all federal, state and local government web resources and services.